createdAt,value
2022-09-12T00:02:17.853Z,99193.22
2022-09-12T00:05:19.991Z,99193.00
2022-09-12T00:08:21.708Z,99198.38
2022-09-12T00:11:24.261Z,99193.84
2022-09-12T00:14:25.956Z,99195.00
2022-09-12T00:17:27.683Z,99196.03
2022-09-12T00:20:29.452Z,99196.81
2022-09-12T00:23:32.690Z,99193.31
2022-09-12T00:26:34.880Z,99192.47
2022-09-12T00:29:36.593Z,99192.84
2022-09-12T00:32:38.494Z,99184.19
2022-09-12T00:35:53.043Z,99178.78
2022-09-12T00:38:54.946Z,99188.28
2022-09-12T00:41:56.774Z,99179.94
2022-09-12T00:44:58.522Z,99185.72
2022-09-12T00:48:04.461Z,99182.78
2022-09-12T00:51:06.477Z,99184.56
2022-09-12T00:54:17.069Z,99180.16
2022-09-12T00:57:23.716Z,99181.78
2022-09-12T01:00:27.334Z,99190.38
2022-09-12T01:03:29.362Z,99188.63
2022-09-12T01:06:37.394Z,99181.75
2022-09-12T01:09:39.915Z,99177.34
2022-09-12T01:12:46.048Z,99178.94
2022-09-12T01:15:47.846Z,99180.94
2022-09-12T01:19:01.564Z,99174.78
2022-09-12T01:22:41.334Z,99180.72
2022-09-12T01:26:13.824Z,99173.41
2022-09-12T01:29:52.304Z,99170.94
2022-09-12T01:33:31.489Z,99166.53
2022-09-12T01:36:41.072Z,99165.06
2022-09-12T01:40:02.930Z,99167.75
2022-09-12T01:43:26.746Z,99158.88
2022-09-12T01:46:43.047Z,99164.44
2022-09-12T01:50:08.043Z,99162.31
2022-09-12T01:53:12.860Z,99158.97
2022-09-12T01:56:22.951Z,99154.84
2022-09-12T01:59:30.783Z,99172.91
2022-09-12T02:03:10.410Z,99166.94
2022-09-12T02:06:20.584Z,99175.22
2022-09-12T02:09:29.371Z,99169.06
2022-09-12T02:12:39.912Z,99175.84
2022-09-12T02:15:47.740Z,99171.53
2022-09-12T02:18:53.937Z,99176.06
2022-09-12T02:22:01.757Z,99165.91
2022-09-12T02:25:07.597Z,99164.47
2022-09-12T02:28:15.328Z,99169.81
2022-09-12T02:31:33.803Z,99165.28
2022-09-12T02:34:50.784Z,99160.13
2022-09-12T02:38:04.625Z,99160.28
2022-09-12T02:41:07.478Z,99155.13
2022-09-12T02:44:09.174Z,99158.84
2022-09-12T02:47:43.473Z,99151.00
2022-09-12T02:50:45.830Z,99148.50
2022-09-12T02:53:50.995Z,99144.16
2022-09-12T02:56:52.703Z,99140.88
2022-09-12T02:59:58.979Z,99141.22
2022-09-12T03:03:27.659Z,99142.44
2022-09-12T03:06:55.543Z,99141.94
2022-09-12T03:10:08.098Z,99134.94
2022-09-12T03:13:21.859Z,99137.50
2022-09-12T03:16:42.081Z,99140.19
2022-09-12T03:19:58.023Z,99138.44
2022-09-12T03:23:12.488Z,99130.16
2022-09-12T03:26:27.249Z,99129.69
2022-09-12T03:29:30.951Z,99130.91
2022-09-12T03:32:50.724Z,99126.56
2022-09-12T03:35:53.495Z,99126.56
2022-09-12T03:38:55.243Z,99123.63
2022-09-12T03:41:57.523Z,99122.59
2022-09-12T03:44:59.267Z,99122.78
2022-09-12T03:48:01.283Z,99135.31
2022-09-12T03:51:05.201Z,99136.72
2022-09-12T03:54:07.235Z,99138.72
2022-09-12T03:57:08.901Z,99134.41
2022-09-12T04:00:11.188Z,99139.75
2022-09-12T04:03:15.602Z,99138.44
2022-09-12T04:06:20.235Z,99142.13
2022-09-12T04:09:22.074Z,99145.81
2022-09-12T04:12:23.891Z,99144.53
2022-09-12T04:15:25.803Z,99133.38
2022-09-12T04:18:28.463Z,99142.22
2022-09-12T04:21:30.952Z,99142.41
2022-09-12T04:24:32.677Z,99142.03
2022-09-12T04:27:34.392Z,99146.56
2022-09-12T04:30:36.216Z,99139.19
2022-09-12T04:33:39.599Z,99137.34
2022-09-12T04:36:42.258Z,99139.81
2022-09-12T04:39:43.985Z,99146.09
2022-09-12T04:42:45.737Z,99148.59
2022-09-12T04:45:47.502Z,99145.09
2022-09-12T04:48:54.488Z,99152.91
2022-09-12T04:51:59.541Z,99148.41
2022-09-12T04:55:01.275Z,99142.50
2022-09-12T04:58:02.966Z,99155.63
2022-09-12T05:01:23.233Z,99148.47
2022-09-12T05:04:25.013Z,99149.19
2022-09-12T05:07:26.679Z,99152.78
2022-09-12T05:10:28.517Z,99159.31
2022-09-12T05:13:30.475Z,99151.03
2022-09-12T05:16:32.871Z,99154.53
2022-09-12T05:19:34.951Z,99171.22
2022-09-12T05:22:38.736Z,99168.97
2022-09-12T05:25:40.583Z,99175.38
2022-09-12T05:28:42.567Z,99172.41
2022-09-12T05:31:44.682Z,99174.75
2022-09-12T05:34:46.402Z,99177.88
2022-09-12T05:37:48.103Z,99171.91
2022-09-12T05:40:49.815Z,99177.66
2022-09-12T05:43:56.695Z,99177.28
2022-09-12T05:46:58.432Z,99180.00
2022-09-12T05:50:00.145Z,99163.78
2022-09-12T05:53:01.827Z,99177.88
2022-09-12T05:56:09.319Z,99174.22
2022-09-12T05:59:13.745Z,99171.34
2022-09-12T06:02:16.037Z,99167.22
2022-09-12T06:05:18.406Z,99172.19
2022-09-12T06:08:20.083Z,99169.09
2022-09-12T06:11:26.091Z,99167.84
2022-09-12T06:14:27.931Z,99155.44
2022-09-12T06:17:29.704Z,99153.34
2022-09-12T06:20:31.433Z,99155.56
2022-09-12T06:23:33.411Z,99156.97
2022-09-12T06:26:35.538Z,99154.00
2022-09-12T06:29:37.449Z,99147.91
2022-09-12T06:32:39.248Z,99152.97
2022-09-12T06:35:41.174Z,99144.56
2022-09-12T06:38:43.054Z,99151.69
2022-09-12T06:41:45.415Z,99152.94
2022-09-12T06:44:47.120Z,99155.34
2022-09-12T06:47:48.809Z,99154.22
2022-09-12T06:50:58.520Z,99159.97
2022-09-12T06:54:00.980Z,99161.47
2022-09-12T06:57:02.715Z,99167.63
2022-09-12T07:00:05.876Z,99163.53
2022-09-12T07:03:08.377Z,99167.63
2022-09-12T07:06:14.442Z,99167.72
2022-09-12T07:09:17.014Z,99170.88
2022-09-12T07:12:18.821Z,99155.38
2022-09-12T07:15:20.528Z,99166.97
2022-09-12T07:18:22.211Z,99163.03
2022-09-12T07:21:24.163Z,99155.00
2022-09-12T07:24:26.169Z,99165.88
2022-09-12T07:27:27.900Z,99158.13
2022-09-12T07:30:29.751Z,99158.78
2022-09-12T07:33:31.671Z,99155.97
2022-09-12T07:36:33.964Z,99162.88
2022-09-12T07:39:35.618Z,99163.16
2022-09-12T07:42:37.300Z,99167.41
2022-09-12T07:45:41.831Z,99161.28
2022-09-12T07:48:44.622Z,99162.22
2022-09-12T07:51:46.733Z,99165.28
2022-09-12T07:54:48.414Z,99156.59
2022-09-12T07:57:51.108Z,99165.53
2022-09-12T08:00:53.001Z,99170.00
2022-09-12T08:03:57.345Z,99181.03
2022-09-12T08:06:59.244Z,99178.69
2022-09-12T08:10:01.408Z,99177.47
2022-09-12T08:13:03.827Z,99179.88
2022-09-12T08:16:17.971Z,99172.34
2022-09-12T08:19:19.950Z,99173.25
2022-09-12T08:22:21.973Z,99181.69
2022-09-12T08:25:24.017Z,99181.28
2022-09-12T08:28:26.191Z,99180.03
2022-09-12T08:31:28.695Z,99174.84
2022-09-12T08:34:30.433Z,99180.13
2022-09-12T08:37:32.268Z,99174.56
2022-09-12T08:40:49.252Z,99183.88
2022-09-12T08:44:28.531Z,99178.22
2022-09-12T08:47:43.604Z,99169.75
2022-09-12T08:50:49.894Z,99177.53
2022-09-12T08:53:54.705Z,99173.97
2022-09-12T08:57:02.675Z,99173.28
2022-09-12T09:00:06.197Z,99167.78
2022-09-12T09:03:27.080Z,99167.78
2022-09-12T09:06:52.561Z,99157.69
2022-09-12T09:10:03.353Z,99169.25
2022-09-12T09:13:43.285Z,99158.84
2022-09-12T09:16:48.024Z,99159.81
2022-09-12T09:19:57.714Z,99161.44
2022-09-12T09:23:10.664Z,99153.31
2022-09-12T09:26:28.731Z,99155.28
2022-09-12T09:29:41.364Z,99148.22
2022-09-12T09:32:47.768Z,99156.03
2022-09-12T09:36:11.671Z,99140.50
2022-09-12T09:39:38.158Z,99150.28
2022-09-12T09:43:06.104Z,99140.41
2022-09-12T09:46:08.120Z,99138.38
2022-09-12T09:49:14.569Z,99142.03
2022-09-12T09:52:21.359Z,99142.66
2022-09-12T09:55:28.186Z,99140.31
2022-09-12T09:58:35.230Z,99133.44
2022-09-12T10:01:38.907Z,99132.50
2022-09-12T10:04:53.235Z,99118.75
2022-09-12T10:07:55.077Z,99123.25
2022-09-12T10:11:03.695Z,99121.41
2022-09-12T10:14:05.747Z,99115.09
2022-09-12T10:17:33.240Z,99113.81
2022-09-12T10:20:42.559Z,99113.19
2022-09-12T10:23:45.978Z,99104.59
2022-09-12T10:26:56.776Z,99108.94
2022-09-12T10:30:05.920Z,99110.53
2022-09-12T10:33:12.869Z,99118.81
2022-09-12T10:36:15.701Z,99122.56
2022-09-12T10:39:19.731Z,99120.22
2022-09-12T10:42:56.783Z,99116.63
2022-09-12T10:46:19.504Z,99116.28
2022-09-12T10:49:26.249Z,99107.75
2022-09-12T10:52:28.527Z,99109.78
2022-09-12T10:55:34.930Z,99108.41
2022-09-12T10:59:19.326Z,99116.66
2022-09-12T11:02:21.725Z,99107.34
2022-09-12T11:05:37.497Z,99115.16
2022-09-12T11:08:57.564Z,99102.91
2022-09-12T11:12:08.305Z,99099.94
2022-09-12T11:15:29.871Z,99100.56
2022-09-12T11:18:37.413Z,99094.16
2022-09-12T11:21:57.191Z,99088.78
2022-09-12T11:25:20.134Z,99092.75
2022-09-12T11:28:35.019Z,99079.69
2022-09-12T11:32:14.448Z,99087.69
2022-09-12T11:35:19.024Z,99086.69
2022-09-12T11:38:44.881Z,99079.69
2022-09-12T11:41:55.841Z,99084.00
2022-09-12T11:45:19.115Z,99070.66
2022-09-12T11:48:38.299Z,99083.69
2022-09-12T11:51:45.924Z,99091.50
2022-09-12T11:55:18.532Z,99078.28
2022-09-12T11:58:24.972Z,99073.84
2022-09-12T12:01:36.287Z,99080.03
2022-09-12T12:04:56.129Z,99062.78
2022-09-12T12:08:01.141Z,99060.75
2022-09-12T12:11:05.330Z,99066.06
2022-09-12T12:14:18.901Z,99055.59
2022-09-12T12:17:23.851Z,99065.44
2022-09-12T12:20:27.311Z,99054.88
2022-09-12T12:23:34.895Z,99058.19
2022-09-12T12:26:40.041Z,99050.69
2022-09-12T12:29:45.267Z,99041.03
2022-09-12T12:32:47.123Z,99042.31
2022-09-12T12:35:57.827Z,99034.66
2022-09-12T12:39:00.052Z,99029.00
2022-09-12T12:42:03.088Z,99027.09
2022-09-12T12:45:29.187Z,99027.50
2022-09-12T12:48:35.485Z,99012.34
2022-09-12T12:51:40.613Z,99009.44
2022-09-12T12:54:42.305Z,99017.81
2022-09-12T12:57:50.521Z,99018.94
2022-09-12T13:01:11.297Z,99020.16
2022-09-12T13:04:18.074Z,99016.34
2022-09-12T13:07:38.772Z,99017.56
2022-09-12T13:10:53.650Z,99018.97
2022-09-12T13:14:00.802Z,99008.31
2022-09-12T13:17:06.355Z,99006.25
2022-09-12T13:20:34.586Z,99010.97
2022-09-12T13:23:36.433Z,99009.31
2022-09-12T13:26:43.910Z,99003.94
2022-09-12T13:29:45.855Z,99008.09
2022-09-12T13:32:47.863Z,99005.84
2022-09-12T13:36:03.084Z,98996.50
2022-09-12T13:39:35.195Z,98992.13
2022-09-12T13:42:48.773Z,98989.28
2022-09-12T13:45:52.895Z,98985.38
2022-09-12T13:48:55.058Z,98982.22
2022-09-12T13:52:03.271Z,98990.34
2022-09-12T13:55:09.019Z,98984.41
2022-09-12T13:58:31.969Z,98977.09
2022-09-12T14:01:42.590Z,98974.34
2022-09-12T14:05:06.917Z,98977.59
2022-09-12T14:08:11.327Z,98980.06
2022-09-12T14:11:25.140Z,98974.03
2022-09-12T14:14:31.607Z,98973.44
2022-09-12T14:17:36.311Z,98971.97
2022-09-12T14:20:39.436Z,98974.22
2022-09-12T14:23:43.832Z,98966.16
2022-09-12T14:26:46.312Z,98967.19
2022-09-12T14:29:48.522Z,98964.47
2022-09-12T14:33:12.101Z,98965.31
2022-09-12T14:36:27.330Z,98965.31
2022-09-12T14:39:43.013Z,98957.25
2022-09-12T14:42:46.722Z,98961.28
2022-09-12T14:45:59.628Z,98955.16
2022-09-12T14:49:10.409Z,98950.41
2022-09-12T14:52:33.585Z,98957.16
2022-09-12T14:55:43.370Z,98946.53
2022-09-12T14:58:45.109Z,98947.44
2022-09-12T15:01:46.910Z,98947.41
2022-09-12T15:05:04.002Z,98947.66
2022-09-12T15:08:15.166Z,98959.50
2022-09-12T15:11:16.913Z,98946.47
2022-09-12T15:14:18.600Z,98953.53
2022-09-12T15:17:20.443Z,98955.84
2022-09-12T15:20:22.809Z,98962.44
2022-09-12T15:23:33.116Z,98954.09
2022-09-12T15:26:34.953Z,98952.84
2022-09-12T15:29:36.679Z,98965.84
2022-09-12T15:32:39.330Z,98954.44
2022-09-12T15:35:41.316Z,98959.47
2022-09-12T15:38:44.029Z,98966.09
2022-09-12T15:41:47.810Z,98967.84
2022-09-12T15:44:49.584Z,98967.47
2022-09-12T15:47:51.309Z,98970.38
2022-09-12T15:50:53.121Z,98970.88
2022-09-12T15:53:55.133Z,98969.94
2022-09-12T15:56:56.844Z,98972.66
2022-09-12T15:59:58.647Z,98979.03
2022-09-12T16:03:01.023Z,98971.81
2022-09-12T16:06:04.383Z,98968.84
2022-09-12T16:09:06.087Z,98971.06
2022-09-12T16:12:07.937Z,98974.63
2022-09-12T16:15:15.325Z,98971.16
2022-09-12T16:18:17.171Z,98968.69
2022-09-12T16:21:19.003Z,98975.91
2022-09-12T16:24:20.796Z,98969.81
2022-09-12T16:27:22.515Z,98976.94
2022-09-12T16:30:24.591Z,98971.09
2022-09-12T16:33:26.999Z,98975.28
2022-09-12T16:36:28.665Z,98973.06
2022-09-12T16:39:30.380Z,98976.34
2022-09-12T16:42:32.089Z,98974.44
2022-09-12T16:45:33.977Z,98963.28
2022-09-12T16:48:36.159Z,98961.94
2022-09-12T16:51:37.941Z,98968.44
2022-09-12T16:54:40.082Z,98957.63
2022-09-12T16:57:41.856Z,98969.88
2022-09-12T17:00:43.509Z,98970.69
2022-09-12T17:03:45.764Z,98970.47
2022-09-12T17:06:47.450Z,98964.84
2022-09-12T17:09:49.384Z,98968.84
2022-09-12T17:12:51.157Z,98973.22
2022-09-12T17:15:52.920Z,98973.78
2022-09-12T17:18:55.391Z,98967.66
2022-09-12T17:21:57.884Z,98975.28
2022-09-12T17:24:59.557Z,98982.50
2022-09-12T17:28:01.587Z,98983.06
2022-09-12T17:31:09.275Z,98983.41
2022-09-12T17:34:14.451Z,98982.47
2022-09-12T17:37:17.485Z,98986.91
2022-09-12T17:40:19.391Z,98986.50
2022-09-12T17:43:21.118Z,98985.75
2022-09-12T17:46:26.058Z,98987.66
2022-09-12T17:49:28.267Z,98992.44
2022-09-12T17:52:30.484Z,99000.19
2022-09-12T17:55:39.475Z,98996.72
2022-09-12T17:58:41.376Z,98995.19
2022-09-12T18:02:02.314Z,98994.75
2022-09-12T18:05:09.058Z,98997.13
2022-09-12T18:08:10.947Z,99001.53
2022-09-12T18:11:12.708Z,99001.78
2022-09-12T18:14:15.291Z,99006.19
2022-09-12T18:17:17.197Z,99012.47
2022-09-12T18:20:19.045Z,99011.84
2022-09-12T18:23:20.784Z,99018.75
2022-09-12T18:26:22.782Z,99026.44
2022-09-12T18:29:27.727Z,99026.06
2022-09-12T18:32:29.423Z,99033.78
2022-09-12T18:35:32.008Z,99039.41
2022-09-12T18:38:33.769Z,99047.97
2022-09-12T18:41:36.053Z,99052.16
2022-09-12T18:44:37.731Z,99060.06
2022-09-12T18:47:39.453Z,99053.09
2022-09-12T18:50:41.120Z,99057.31
2022-09-12T18:53:43.100Z,99062.72
2022-09-12T18:56:45.849Z,99060.06
2022-09-12T18:59:47.825Z,99062.34
2022-09-12T19:02:49.529Z,99061.09
2022-09-12T19:05:51.350Z,99066.50
2022-09-12T19:08:54.112Z,99059.88
2022-09-12T19:11:55.895Z,99069.19
2022-09-12T19:14:58.150Z,99057.22
2022-09-12T19:18:00.142Z,99063.03
2022-09-12T19:21:01.838Z,99057.47
2022-09-12T19:24:10.158Z,99058.09
2022-09-12T19:27:13.474Z,99054.59
2022-09-12T19:30:15.201Z,99059.97
2022-09-12T19:33:16.879Z,99057.09
2022-09-12T19:36:44.348Z,99055.84
2022-09-12T19:39:44.456Z,99054.03
2022-09-12T19:42:46.177Z,99059.03
2022-09-12T19:45:48.338Z,99055.09
2022-09-12T19:48:51.037Z,99056.59
2022-09-12T19:51:52.811Z,99052.22
2022-09-12T19:54:54.486Z,99055.34
2022-09-12T19:57:56.230Z,99052.66
2022-09-12T20:01:13.618Z,99058.25
2022-09-12T20:04:15.327Z,99066.97
2022-09-12T20:07:17.029Z,99061.81
2022-09-12T20:10:18.916Z,99059.75
2022-09-12T20:13:20.583Z,99063.06
2022-09-12T20:16:25.537Z,99070.47
2022-09-12T20:19:28.286Z,99063.66
2022-09-12T20:22:30.148Z,99065.31
2022-09-12T20:25:31.957Z,99074.22
2022-09-12T20:28:33.697Z,99076.91
2022-09-12T20:31:37.170Z,99078.34
2022-09-12T20:34:39.089Z,99087.81
2022-09-12T20:37:40.842Z,99077.72
2022-09-12T20:40:48.977Z,99080.63
2022-09-12T20:43:55.536Z,99075.03
2022-09-12T20:46:58.059Z,99073.38
2022-09-12T20:49:59.979Z,99075.03
2022-09-12T20:53:01.720Z,99078.75
2022-09-12T20:56:05.387Z,99076.06
2022-09-12T20:59:07.289Z,99079.59
2022-09-12T21:02:15.784Z,99071.72
2022-09-12T21:05:17.753Z,99074.81
2022-09-12T21:08:19.490Z,99070.09
2022-09-12T21:11:21.165Z,99073.19
2022-09-12T21:14:22.850Z,99069.88
2022-09-12T21:17:24.526Z,99073.38
2022-09-12T21:20:26.240Z,99069.25
2022-09-12T21:23:29.676Z,99076.88
2022-09-12T21:26:31.884Z,99076.88
2022-09-12T21:29:33.619Z,99083.25
2022-09-12T21:32:35.996Z,99091.06
2022-09-12T21:35:37.882Z,99086.88
2022-09-12T21:38:39.695Z,99088.16
2022-09-12T21:41:41.364Z,99086.28
2022-09-12T21:44:43.057Z,99083.59
2022-09-12T21:47:45.295Z,99079.88
2022-09-12T21:50:50.411Z,99076.16
2022-09-12T21:53:52.138Z,99073.47
2022-09-12T21:56:53.925Z,99067.06
2022-09-12T21:59:55.626Z,99070.75
2022-09-12T22:02:57.971Z,99068.09
2022-09-12T22:06:02.084Z,99060.25
2022-09-12T22:09:05.785Z,99057.16
2022-09-12T22:12:07.639Z,99060.03
2022-09-12T22:15:36.496Z,99062.13
2022-09-12T22:18:35.939Z,99057.34
2022-09-12T22:21:57.587Z,99061.06
2022-09-12T22:24:59.269Z,99061.63
2022-09-12T22:28:01.128Z,99063.25
2022-09-12T22:31:02.848Z,99064.09
2022-09-12T22:34:04.957Z,99065.16
2022-09-12T22:37:06.835Z,99060.41
2022-09-12T22:40:09.473Z,99062.22
2022-09-12T22:43:11.808Z,99058.09
2022-09-12T22:46:13.576Z,99060.13
2022-09-12T22:49:15.368Z,99051.69
2022-09-12T22:52:17.149Z,99051.47
2022-09-12T22:55:18.831Z,99048.34
2022-09-12T22:58:20.639Z,99040.44
2022-09-12T23:01:22.915Z,99043.97
2022-09-12T23:04:24.629Z,99042.13
2022-09-12T23:07:26.649Z,99046.19
2022-09-12T23:10:28.273Z,99043.91
2022-09-12T23:13:30.307Z,99035.59
2022-09-12T23:16:32.218Z,99038.44
2022-09-12T23:19:33.919Z,99040.09
2022-09-12T23:22:37.159Z,99034.50
2022-09-12T23:25:38.817Z,99035.03
2022-09-12T23:28:46.790Z,99026.59
2022-09-12T23:31:48.715Z,99036.25
2022-09-12T23:34:50.431Z,99032.50
2022-09-12T23:37:52.104Z,99034.09
2022-09-12T23:40:53.933Z,99036.72
2022-09-12T23:43:55.879Z,99046.56
2022-09-12T23:46:57.548Z,99041.19
2022-09-12T23:49:59.271Z,99045.44
2022-09-12T23:53:01.247Z,99038.19
2022-09-12T23:56:04.047Z,99035.91
2022-09-12T23:59:05.804Z,99034.63
